sensor_id;sensor_type;location;lat;lon;timestamp;P1;durP1;ratioP1;P2;durP2;ratioP2
53287;SDS011;39172;45.550;12.072;2024-03-23T00:56:50;32.88;;;27.30;;
53287;SDS011;39172;45.550;12.072;2024-03-23T01:02:51;30.88;;;26.23;;
53287;SDS011;39172;45.550;12.072;2024-03-23T01:08:53;32.38;;;26.88;;
53287;SDS011;39172;45.550;12.072;2024-03-23T01:14:54;30.80;;;27.23;;
53287;SDS011;39172;45.550;12.072;2024-03-23T01:20:55;32.58;;;27.23;;
53287;SDS011;39172;45.550;12.072;2024-03-23T01:26:56;29.70;;;25.02;;
53287;SDS011;39172;45.550;12.072;2024-03-23T01:32:58;27.55;;;23.20;;
53287;SDS011;39172;45.550;12.072;2024-03-23T01:38:58;23.00;;;20.02;;
53287;SDS011;39172;45.550;12.072;2024-03-23T01:44:59;23.20;;;20.38;;
53287;SDS011;39172;45.550;12.072;2024-03-23T01:51:00;21.83;;;19.48;;
53287;SDS011;39172;45.550;12.072;2024-03-23T01:57:01;19.80;;;17.70;;
53287;SDS011;39172;45.550;12.072;2024-03-23T02:03:02;17.88;;;15.98;;
53287;SDS011;39172;45.550;12.072;2024-03-23T02:09:03;17.38;;;15.57;;
53287;SDS011;39172;45.550;12.072;2024-03-23T02:15:04;21.38;;;18.42;;
53287;SDS011;39172;45.550;12.072;2024-03-23T02:21:05;21.88;;;19.15;;
53287;SDS011;39172;45.550;12.072;2024-03-23T02:27:06;20.30;;;17.90;;
53287;SDS011;39172;45.550;12.072;2024-03-23T02:33:07;19.52;;;17.52;;
53287;SDS011;39172;45.550;12.072;2024-03-23T02:39:08;16.55;;;14.85;;
53287;SDS011;39172;45.550;12.072;2024-03-23T02:45:09;17.38;;;15.15;;
53287;SDS011;39172;45.550;12.072;2024-03-23T02:51:10;14.25;;;12.75;;
53287;SDS011;39172;45.550;12.072;2024-03-23T02:57:11;14.85;;;13.32;;
53287;SDS011;39172;45.550;12.072;2024-03-23T03:03:12;15.85;;;14.18;;
53287;SDS011;39172;45.550;12.072;2024-03-23T03:09:13;17.83;;;15.93;;
53287;SDS011;39172;45.550;12.072;2024-03-23T03:15:14;18.50;;;15.95;;
53287;SDS011;39172;45.550;12.072;2024-03-23T03:21:14;18.52;;;16.52;;
53287;SDS011;39172;45.550;12.072;2024-03-23T03:27:17;18.83;;;16.42;;
53287;SDS011;39172;45.550;12.072;2024-03-23T03:33:18;16.15;;;14.45;;
53287;SDS011;39172;45.550;12.072;2024-03-23T03:39:19;15.20;;;13.60;;
53287;SDS011;39172;45.550;12.072;2024-03-23T03:45:20;21.30;;;19.00;;
53287;SDS011;39172;45.550;12.072;2024-03-23T03:51:20;21.77;;;19.38;;
53287;SDS011;39172;45.550;12.072;2024-03-23T03:57:21;22.42;;;19.83;;
53287;SDS011;39172;45.550;12.072;2024-03-23T04:03:24;22.77;;;20.20;;
53287;SDS011;39172;45.550;12.072;2024-03-23T04:09:24;20.92;;;18.73;;
53287;SDS011;39172;45.550;12.072;2024-03-23T04:15:25;19.00;;;17.00;;
53287;SDS011;39172;45.550;12.072;2024-03-23T04:21:27;18.42;;;16.52;;
53287;SDS011;39172;45.550;12.072;2024-03-23T04:27:28;16.70;;;14.98;;
53287;SDS011;39172;45.550;12.072;2024-03-23T04:33:29;17.80;;;16.00;;
53287;SDS011;39172;45.550;12.072;2024-03-23T04:39:30;18.60;;;16.65;;
53287;SDS011;39172;45.550;12.072;2024-03-23T04:45:31;17.08;;;15.23;;
53287;SDS011;39172;45.550;12.072;2024-03-23T04:51:38;18.35;;;16.45;;
53287;SDS011;39172;45.550;12.072;2024-03-23T04:57:39;19.88;;;17.83;;
53287;SDS011;39172;45.550;12.072;2024-03-23T05:03:40;18.27;;;16.48;;
53287;SDS011;39172;45.550;12.072;2024-03-23T05:09:41;16.63;;;15.00;;
53287;SDS011;39172;45.550;12.072;2024-03-23T05:15:42;17.77;;;15.90;;
53287;SDS011;39172;45.550;12.072;2024-03-23T05:21:44;17.02;;;15.32;;
53287;SDS011;39172;45.550;12.072;2024-03-23T05:27:45;18.63;;;16.73;;
53287;SDS011;39172;45.550;12.072;2024-03-23T05:33:46;20.70;;;18.60;;
53287;SDS011;39172;45.550;12.072;2024-03-23T05:39:49;18.42;;;16.52;;
53287;SDS011;39172;45.550;12.072;2024-03-23T05:45:57;17.73;;;15.93;;
53287;SDS011;39172;45.550;12.072;2024-03-23T05:51:58;18.17;;;16.27;;
53287;SDS011;39172;45.550;12.072;2024-03-23T05:57:59;20.35;;;18.20;;
53287;SDS011;39172;45.550;12.072;2024-03-23T06:04:00;21.45;;;19.25;;
53287;SDS011;39172;45.550;12.072;2024-03-23T06:10:02;20.70;;;18.50;;
53287;SDS011;39172;45.550;12.072;2024-03-23T06:16:03;20.88;;;18.67;;
53287;SDS011;39172;45.550;12.072;2024-03-23T06:22:05;22.88;;;20.38;;
53287;SDS011;39172;45.550;12.072;2024-03-23T06:28:07;21.65;;;19.38;;
53287;SDS011;39172;45.550;12.072;2024-03-23T06:34:08;21.98;;;19.58;;
53287;SDS011;39172;45.550;12.072;2024-03-23T06:40:09;22.70;;;20.23;;
53287;SDS011;39172;45.550;12.072;2024-03-23T06:46:11;20.23;;;18.02;;
53287;SDS011;39172;45.550;12.072;2024-03-23T06:52:11;19.15;;;17.13;;
53287;SDS011;39172;45.550;12.072;2024-03-23T06:58:13;18.75;;;16.85;;
53287;SDS011;39172;45.550;12.072;2024-03-23T07:04:14;19.15;;;17.08;;
53287;SDS011;39172;45.550;12.072;2024-03-23T07:10:16;18.75;;;16.65;;
53287;SDS011;39172;45.550;12.072;2024-03-23T07:16:17;16.83;;;14.88;;
53287;SDS011;39172;45.550;12.072;2024-03-23T07:22:18;15.93;;;14.32;;
53287;SDS011;39172;45.550;12.072;2024-03-23T07:28:19;13.50;;;12.13;;
53287;SDS011;39172;45.550;12.072;2024-03-23T07:34:23;15.00;;;13.43;;
53287;SDS011;39172;45.550;12.072;2024-03-23T07:40:25;16.48;;;13.85;;
53287;SDS011;39172;45.550;12.072;2024-03-23T07:46:26;14.45;;;12.95;;
53287;SDS011;39172;45.550;12.072;2024-03-23T07:52:30;17.77;;;15.90;;
53287;SDS011;39172;45.550;12.072;2024-03-23T07:58:31;21.55;;;19.25;;
53287;SDS011;39172;45.550;12.072;2024-03-23T08:04:35;18.85;;;16.70;;
53287;SDS011;39172;45.550;12.072;2024-03-23T08:10:36;19.70;;;17.55;;
53287;SDS011;39172;45.550;12.072;2024-03-23T08:16:37;17.27;;;15.30;;
53287;SDS011;39172;45.550;12.072;2024-03-23T08:22:38;17.20;;;15.07;;
53287;SDS011;39172;45.550;12.072;2024-03-23T08:28:40;21.10;;;18.30;;
53287;SDS011;39172;45.550;12.072;2024-03-23T08:34:41;21.95;;;19.30;;
53287;SDS011;39172;45.550;12.072;2024-03-23T08:40:42;22.95;;;20.08;;
53287;SDS011;39172;45.550;12.072;2024-03-23T08:46:43;24.35;;;20.92;;
53287;SDS011;39172;45.550;12.072;2024-03-23T08:52:45;27.50;;;22.45;;
53287;SDS011;39172;45.550;12.072;2024-03-23T08:58:46;24.13;;;20.08;;
53287;SDS011;39172;45.550;12.072;2024-03-23T09:04:47;23.35;;;20.27;;
53287;SDS011;39172;45.550;12.072;2024-03-23T09:10:48;23.17;;;19.80;;
53287;SDS011;39172;45.550;12.072;2024-03-23T09:16:52;23.77;;;20.17;;
53287;SDS011;39172;45.550;12.072;2024-03-23T09:22:53;23.70;;;20.98;;
53287;SDS011;39172;45.550;12.072;2024-03-23T09:28:54;27.77;;;23.05;;
53287;SDS011;39172;45.550;12.072;2024-03-23T09:34:55;23.15;;;19.85;;
53287;SDS011;39172;45.550;12.072;2024-03-23T09:40:56;23.70;;;20.90;;
53287;SDS011;39172;45.550;12.072;2024-03-23T09:46:59;22.10;;;18.63;;
53287;SDS011;39172;45.550;12.072;2024-03-23T09:53:01;17.42;;;15.57;;
53287;SDS011;39172;45.550;12.072;2024-03-23T09:59:02;18.40;;;15.35;;
53287;SDS011;39172;45.550;12.072;2024-03-23T10:05:03;20.33;;;16.92;;
53287;SDS011;39172;45.550;12.072;2024-03-23T10:11:12;18.88;;;15.65;;
53287;SDS011;39172;45.550;12.072;2024-03-23T10:23:24;15.85;;;14.07;;
53287;SDS011;39172;45.550;12.072;2024-03-23T10:29:26;14.50;;;13.00;;
53287;SDS011;39172;45.550;12.072;2024-03-23T10:35:30;19.25;;;15.20;;
53287;SDS011;39172;45.550;12.072;2024-03-23T10:41:31;17.42;;;14.70;;
53287;SDS011;39172;45.550;12.072;2024-03-23T10:47:33;16.85;;;14.68;;
53287;SDS011;39172;45.550;12.072;2024-03-23T10:53:35;18.73;;;16.35;;
53287;SDS011;39172;45.550;12.072;2024-03-23T10:59:37;16.42;;;13.95;;
53287;SDS011;39172;45.550;12.072;2024-03-23T11:05:38;15.90;;;13.23;;
53287;SDS011;39172;45.550;12.072;2024-03-23T11:11:40;13.35;;;11.80;;
53287;SDS011;39172;45.550;12.072;2024-03-23T11:17:41;14.38;;;12.88;;
53287;SDS011;39172;45.550;12.072;2024-03-23T11:23:42;15.63;;;13.95;;
53287;SDS011;39172;45.550;12.072;2024-03-23T11:29:43;15.90;;;13.93;;
53287;SDS011;39172;45.550;12.072;2024-03-23T11:35:44;14.30;;;12.68;;
53287;SDS011;39172;45.550;12.072;2024-03-23T11:41:51;14.10;;;12.57;;
53287;SDS011;39172;45.550;12.072;2024-03-23T11:54:23;14.32;;;12.48;;
53287;SDS011;39172;45.550;12.072;2024-03-23T12:00:24;17.60;;;15.63;;
53287;SDS011;39172;45.550;12.072;2024-03-23T12:06:25;15.70;;;13.98;;
53287;SDS011;39172;45.550;12.072;2024-03-23T12:12:27;14.30;;;12.60;;
53287;SDS011;39172;45.550;12.072;2024-03-23T12:18:28;15.13;;;13.00;;
53287;SDS011;39172;45.550;12.072;2024-03-23T12:24:29;16.02;;;13.82;;
53287;SDS011;39172;45.550;12.072;2024-03-23T12:30:30;13.95;;;12.43;;
53287;SDS011;39172;45.550;12.072;2024-03-23T12:36:31;14.35;;;12.85;;
53287;SDS011;39172;45.550;12.072;2024-03-23T12:42:32;14.35;;;12.82;;
53287;SDS011;39172;45.550;12.072;2024-03-23T12:48:33;13.90;;;12.40;;
53287;SDS011;39172;45.550;12.072;2024-03-23T12:54:34;14.80;;;13.23;;
53287;SDS011;39172;45.550;12.072;2024-03-23T13:00:35;13.38;;;11.98;;
53287;SDS011;39172;45.550;12.072;2024-03-23T13:06:36;14.45;;;12.55;;
53287;SDS011;39172;45.550;12.072;2024-03-23T13:12:38;13.23;;;11.93;;
53287;SDS011;39172;45.550;12.072;2024-03-23T13:18:40;13.40;;;12.00;;
53287;SDS011;39172;45.550;12.072;2024-03-23T13:24:41;15.98;;;13.93;;
53287;SDS011;39172;45.550;12.072;2024-03-23T13:30:49;18.30;;;15.70;;
53287;SDS011;39172;45.550;12.072;2024-03-23T13:36:50;13.48;;;12.05;;
53287;SDS011;39172;45.550;12.072;2024-03-23T13:42:51;11.75;;;10.52;;
53287;SDS011;39172;45.550;12.072;2024-03-23T13:48:52;18.73;;;16.70;;
53287;SDS011;39172;45.550;12.072;2024-03-23T13:54:53;18.10;;;16.15;;
53287;SDS011;39172;45.550;12.072;2024-03-23T14:00:56;16.33;;;14.63;;
53287;SDS011;39172;45.550;12.072;2024-03-23T14:06:57;16.70;;;14.90;;
53287;SDS011;39172;45.550;12.072;2024-03-23T14:12:58;16.00;;;13.80;;
53287;SDS011;39172;45.550;12.072;2024-03-23T14:19:00;16.83;;;15.02;;
53287;SDS011;39172;45.550;12.072;2024-03-23T14:25:01;19.48;;;17.40;;
53287;SDS011;39172;45.550;12.072;2024-03-23T14:31:03;18.80;;;16.67;;
53287;SDS011;39172;45.550;12.072;2024-03-23T14:37:09;17.27;;;15.25;;
53287;SDS011;39172;45.550;12.072;2024-03-23T14:43:10;18.05;;;16.13;;
53287;SDS011;39172;45.550;12.072;2024-03-23T14:49:14;21.67;;;18.33;;
53287;SDS011;39172;45.550;12.072;2024-03-23T14:55:17;21.42;;;18.73;;
53287;SDS011;39172;45.550;12.072;2024-03-23T15:01:20;24.02;;;19.65;;
53287;SDS011;39172;45.550;12.072;2024-03-23T15:07:21;24.00;;;19.40;;
53287;SDS011;39172;45.550;12.072;2024-03-23T15:13:23;20.27;;;18.05;;
53287;SDS011;39172;45.550;12.072;2024-03-23T15:19:24;23.23;;;18.80;;
53287;SDS011;39172;45.550;12.072;2024-03-23T15:25:25;22.02;;;18.48;;
53287;SDS011;39172;45.550;12.072;2024-03-23T15:31:25;21.65;;;18.88;;
53287;SDS011;39172;45.550;12.072;2024-03-23T15:37:26;21.48;;;18.45;;
53287;SDS011;39172;45.550;12.072;2024-03-23T15:43:29;21.80;;;19.30;;
53287;SDS011;39172;45.550;12.072;2024-03-23T15:49:30;23.70;;;19.42;;
53287;SDS011;39172;45.550;12.072;2024-03-23T15:55:32;22.23;;;18.60;;
53287;SDS011;39172;45.550;12.072;2024-03-23T16:01:36;21.38;;;18.27;;
53287;SDS011;39172;45.550;12.072;2024-03-23T16:07:39;19.35;;;16.85;;
53287;SDS011;39172;45.550;12.072;2024-03-23T16:13:40;19.52;;;15.80;;
53287;SDS011;39172;45.550;12.072;2024-03-23T16:19:41;18.42;;;14.57;;
53287;SDS011;39172;45.550;12.072;2024-03-23T16:25:47;15.63;;;13.57;;
53287;SDS011;39172;45.550;12.072;2024-03-23T16:31:50;14.40;;;12.88;;
53287;SDS011;39172;45.550;12.072;2024-03-23T16:37:54;13.48;;;12.07;;
53287;SDS011;39172;45.550;12.072;2024-03-23T16:43:58;11.77;;;10.57;;
53287;SDS011;39172;45.550;12.072;2024-03-23T16:50:00;11.93;;;10.73;;
53287;SDS011;39172;45.550;12.072;2024-03-23T16:56:03;12.55;;;10.95;;
53287;SDS011;39172;45.550;12.072;2024-03-23T17:02:04;14.55;;;11.57;;
53287;SDS011;39172;45.550;12.072;2024-03-23T17:08:05;14.73;;;13.02;;
53287;SDS011;39172;45.550;12.072;2024-03-23T17:14:06;16.33;;;14.00;;
53287;SDS011;39172;45.550;12.072;2024-03-23T17:20:07;15.43;;;13.68;;
53287;SDS011;39172;45.550;12.072;2024-03-23T17:26:10;15.15;;;12.63;;
53287;SDS011;39172;45.550;12.072;2024-03-23T17:32:13;14.75;;;12.63;;
53287;SDS011;39172;45.550;12.072;2024-03-23T17:38:18;12.65;;;11.23;;
53287;SDS011;39172;45.550;12.072;2024-03-23T17:44:26;12.48;;;11.10;;
53287;SDS011;39172;45.550;12.072;2024-03-23T17:50:39;11.23;;;9.23;;
53287;SDS011;39172;45.550;12.072;2024-03-23T17:56:41;9.50;;;8.50;;
53287;SDS011;39172;45.550;12.072;2024-03-23T18:02:42;9.57;;;8.48;;
53287;SDS011;39172;45.550;12.072;2024-03-23T18:08:43;7.38;;;6.68;;
53287;SDS011;39172;45.550;12.072;2024-03-23T18:14:46;7.95;;;7.15;;
53287;SDS011;39172;45.550;12.072;2024-03-23T18:20:46;8.20;;;7.40;;
53287;SDS011;39172;45.550;12.072;2024-03-23T18:26:50;8.40;;;7.60;;
53287;SDS011;39172;45.550;12.072;2024-03-23T18:32:51;8.02;;;7.22;;
53287;SDS011;39172;45.550;12.072;2024-03-23T18:38:56;9.20;;;8.20;;
53287;SDS011;39172;45.550;12.072;2024-03-23T18:44:59;8.55;;;7.68;;
53287;SDS011;39172;45.550;12.072;2024-03-23T18:51:04;8.57;;;7.68;;
53287;SDS011;39172;45.550;12.072;2024-03-23T18:57:05;8.82;;;7.93;;
53287;SDS011;39172;45.550;12.072;2024-03-23T19:03:18;10.57;;;9.43;;
53287;SDS011;39172;45.550;12.072;2024-03-23T19:09:31;11.98;;;10.75;;
53287;SDS011;39172;45.550;12.072;2024-03-23T19:15:32;10.70;;;9.60;;
53287;SDS011;39172;45.550;12.072;2024-03-23T19:21:33;11.07;;;9.40;;
53287;SDS011;39172;45.550;12.072;2024-03-23T19:27:35;10.10;;;8.70;;
53287;SDS011;39172;45.550;12.072;2024-03-23T19:33:39;8.40;;;7.50;;
53287;SDS011;39172;45.550;12.072;2024-03-23T19:39:41;8.02;;;7.22;;
53287;SDS011;39172;45.550;12.072;2024-03-23T19:45:42;7.80;;;7.10;;
53287;SDS011;39172;45.550;12.072;2024-03-23T19:51:43;7.05;;;6.35;;
53287;SDS011;39172;45.550;12.072;2024-03-23T19:57:45;8.77;;;7.53;;
53287;SDS011;39172;45.550;12.072;2024-03-23T20:03:47;11.07;;;9.77;;
53287;SDS011;39172;45.550;12.072;2024-03-23T20:09:48;16.95;;;13.27;;
53287;SDS011;39172;45.550;12.072;2024-03-23T20:15:55;22.77;;;18.02;;
53287;SDS011;39172;45.550;12.072;2024-03-23T20:21:56;24.98;;;19.13;;
53287;SDS011;39172;45.550;12.072;2024-03-23T20:27:57;20.20;;;17.13;;
53287;SDS011;39172;45.550;12.072;2024-03-23T20:33:58;17.50;;;14.57;;
53287;SDS011;39172;45.550;12.072;2024-03-23T20:39:59;19.63;;;16.55;;
53287;SDS011;39172;45.550;12.072;2024-03-23T20:46:02;16.25;;;14.15;;
53287;SDS011;39172;45.550;12.072;2024-03-23T20:52:03;14.02;;;12.35;;
53287;SDS011;39172;45.550;12.072;2024-03-23T20:58:05;15.50;;;13.45;;
53287;SDS011;39172;45.550;12.072;2024-03-23T21:04:18;21.15;;;18.67;;
53287;SDS011;39172;45.550;12.072;2024-03-23T21:10:37;25.95;;;21.58;;
53287;SDS011;39172;45.550;12.072;2024-03-23T21:16:38;23.48;;;20.83;;
53287;SDS011;39172;45.550;12.072;2024-03-23T21:22:39;22.42;;;19.30;;
53287;SDS011;39172;45.550;12.072;2024-03-23T21:28:40;21.35;;;18.52;;
53287;SDS011;39172;45.550;12.072;2024-03-23T21:34:41;18.77;;;16.77;;
53287;SDS011;39172;45.550;12.072;2024-03-23T21:40:50;17.52;;;15.63;;
53287;SDS011;39172;45.550;12.072;2024-03-23T21:46:51;18.17;;;16.15;;
53287;SDS011;39172;45.550;12.072;2024-03-23T21:52:53;16.70;;;14.90;;
53287;SDS011;39172;45.550;12.072;2024-03-23T21:58:57;15.88;;;14.23;;
53287;SDS011;39172;45.550;12.072;2024-03-23T22:04:59;15.20;;;13.52;;
53287;SDS011;39172;45.550;12.072;2024-03-23T22:11:00;14.35;;;12.85;;
53287;SDS011;39172;45.550;12.072;2024-03-23T22:17:01;13.65;;;12.18;;
53287;SDS011;39172;45.550;12.072;2024-03-23T22:23:03;11.43;;;10.23;;
53287;SDS011;39172;45.550;12.072;2024-03-23T22:29:04;9.23;;;8.30;;
53287;SDS011;39172;45.550;12.072;2024-03-23T22:35:05;8.85;;;7.95;;
53287;SDS011;39172;45.550;12.072;2024-03-23T22:41:06;9.25;;;8.32;;
53287;SDS011;39172;45.550;12.072;2024-03-23T22:47:09;7.15;;;6.53;;
53287;SDS011;39172;45.550;12.072;2024-03-23T22:53:10;7.28;;;6.03;;
53287;SDS011;39172;45.550;12.072;2024-03-23T22:59:11;6.90;;;6.30;;
53287;SDS011;39172;45.550;12.072;2024-03-23T23:05:12;6.28;;;5.68;;
53287;SDS011;39172;45.550;12.072;2024-03-23T23:11:13;5.28;;;4.78;;
53287;SDS011;39172;45.550;12.072;2024-03-23T23:17:14;5.40;;;4.90;;
53287;SDS011;39172;45.550;12.072;2024-03-23T23:23:16;4.88;;;4.40;;
53287;SDS011;39172;45.550;12.072;2024-03-23T23:29:18;5.50;;;4.38;;
53287;SDS011;39172;45.550;12.072;2024-03-23T23:35:19;5.20;;;4.70;;
53287;SDS011;39172;45.550;12.072;2024-03-23T23:41:20;4.65;;;4.25;;
53287;SDS011;39172;45.550;12.072;2024-03-23T23:47:21;5.07;;;4.57;;
53287;SDS011;39172;45.550;12.072;2024-03-23T23:53:24;4.43;;;4.03;;
53287;SDS011;39172;45.550;12.072;2024-03-23T23:59:25;4.30;;;3.90;;
